createdAt,value
2023-03-12T00:01:33.495Z,10.40
2023-03-12T00:07:38.727Z,7.47
2023-03-12T00:10:42.683Z,7.00
2023-03-12T00:13:45.284Z,6.45
2023-03-12T00:16:47.171Z,6.47
2023-03-12T00:19:53.148Z,6.05
2023-03-12T00:22:54.983Z,5.75
2023-03-12T00:26:08.612Z,5.45
2023-03-12T00:32:12.202Z,5.10
2023-03-12T00:35:14.097Z,4.78
2023-03-12T00:38:15.991Z,4.93
2023-03-12T00:41:20.084Z,4.25
2023-03-12T00:44:21.890Z,4.25
2023-03-12T00:47:23.838Z,4.50
2023-03-12T00:50:25.833Z,4.38
2023-03-12T00:53:27.813Z,4.53
2023-03-12T00:56:29.856Z,4.80
2023-03-12T00:59:32.151Z,4.72
2023-03-12T01:02:34.433Z,4.50
2023-03-12T01:05:37.902Z,4.18
2023-03-12T01:08:39.826Z,4.63
2023-03-12T01:11:42.374Z,4.10
2023-03-12T01:14:44.269Z,4.77
2023-03-12T01:17:46.119Z,4.20
2023-03-12T01:20:48.462Z,3.13
2023-03-12T01:23:50.883Z,3.95
2023-03-12T01:26:52.817Z,3.90
2023-03-12T01:29:55.789Z,3.80
2023-03-12T01:32:57.735Z,3.30
2023-03-12T01:35:59.659Z,4.05
2023-03-12T01:39:02.124Z,3.53
2023-03-12T01:42:04.474Z,3.75
2023-03-12T01:45:07.549Z,3.80
2023-03-12T01:48:10.642Z,3.08
2023-03-12T01:51:15.043Z,3.33
2023-03-12T01:54:25.738Z,3.00
2023-03-12T01:57:34.749Z,3.55
2023-03-12T02:00:36.831Z,3.25
2023-03-12T02:03:38.955Z,3.00
2023-03-12T02:07:11.386Z,3.15
2023-03-12T02:10:13.776Z,3.20
2023-03-12T02:13:16.641Z,3.67
2023-03-12T02:16:18.694Z,3.53
2023-03-12T02:19:55.698Z,3.60
2023-03-12T02:23:06.460Z,3.60
2023-03-12T02:26:09.690Z,2.67
2023-03-12T02:29:12.736Z,2.83
2023-03-12T02:32:27.932Z,3.58
2023-03-12T02:35:29.843Z,2.92
2023-03-12T02:38:39.766Z,3.60
2023-03-12T02:42:00.539Z,3.10
2023-03-12T02:45:03.676Z,3.20
2023-03-12T02:48:08.886Z,3.10
2023-03-12T02:51:10.852Z,3.33
2023-03-12T02:54:15.140Z,5.85
2023-03-12T02:57:17.049Z,3.25
2023-03-12T03:00:19.708Z,2.90
2023-03-12T03:03:21.910Z,3.38
2023-03-12T03:06:23.845Z,3.33
2023-03-12T03:09:26.278Z,2.70
2023-03-12T03:12:28.588Z,3.13
2023-03-12T03:15:30.683Z,3.70
2023-03-12T03:18:33.055Z,3.50
2023-03-12T03:21:35.384Z,3.20
2023-03-12T03:24:37.318Z,3.10
2023-03-12T03:27:39.347Z,2.65
2023-03-12T03:30:41.307Z,3.17
2023-03-12T03:33:43.979Z,2.75
2023-03-12T03:36:45.766Z,2.80
2023-03-12T03:39:47.568Z,2.85
2023-03-12T03:42:49.631Z,2.65
2023-03-12T03:46:17.985Z,2.88
2023-03-12T03:49:20.336Z,3.28
2023-03-12T03:52:22.120Z,3.08
2023-03-12T03:55:24.183Z,3.13
2023-03-12T03:58:26.110Z,3.00
2023-03-12T04:01:29.030Z,3.42
2023-03-12T04:04:31.584Z,3.15
2023-03-12T04:07:33.983Z,2.75
2023-03-12T04:10:37.659Z,2.97
2023-03-12T04:13:39.995Z,3.17
2023-03-12T04:16:41.807Z,3.17
2023-03-12T04:19:43.815Z,3.10
2023-03-12T04:22:46.061Z,2.90
2023-03-12T04:25:48.217Z,3.03
2023-03-12T04:28:50.258Z,3.33
2023-03-12T04:31:52.290Z,2.95
2023-03-12T04:34:54.296Z,3.20
2023-03-12T04:37:56.211Z,3.42
2023-03-12T04:41:02.192Z,3.20
2023-03-12T04:44:04.673Z,3.20
2023-03-12T04:47:06.869Z,2.33
2023-03-12T04:50:09.667Z,2.85
2023-03-12T04:53:11.889Z,3.63
2023-03-12T04:56:13.965Z,3.15
2023-03-12T04:59:16.402Z,3.92
2023-03-12T05:02:18.612Z,3.53
2023-03-12T05:05:20.885Z,3.17
2023-03-12T05:08:22.975Z,3.13
2023-03-12T05:11:25.768Z,2.75
2023-03-12T05:14:28.284Z,3.30
2023-03-12T05:17:30.246Z,3.10
2023-03-12T05:20:32.242Z,3.70
2023-03-12T05:23:34.526Z,3.40
2023-03-12T05:26:37.041Z,3.95
2023-03-12T05:29:39.602Z,3.53
2023-03-12T05:32:42.331Z,3.47
2023-03-12T05:35:44.400Z,3.28
2023-03-12T05:38:46.668Z,3.42
2023-03-12T05:41:48.470Z,4.18
2023-03-12T05:44:51.489Z,4.03
2023-03-12T05:47:53.439Z,3.97
2023-03-12T05:50:55.377Z,3.80
2023-03-12T05:53:57.577Z,3.97
2023-03-12T05:56:59.539Z,3.88
2023-03-12T06:00:01.355Z,3.50
2023-03-12T06:03:03.849Z,3.90
2023-03-12T06:06:05.823Z,3.93
2023-03-12T06:09:07.707Z,3.75
2023-03-12T06:12:10.531Z,3.78
2023-03-12T06:15:12.502Z,3.40
2023-03-12T06:18:15.177Z,3.53
2023-03-12T06:21:23.338Z,3.90
2023-03-12T06:24:25.128Z,4.00
2023-03-12T06:27:26.983Z,3.35
2023-03-12T06:30:28.962Z,3.92
2023-03-12T06:33:31.142Z,3.72
2023-03-12T06:36:33.138Z,3.92
2023-03-12T06:39:34.910Z,4.30
2023-03-12T06:42:37.279Z,3.67
2023-03-12T06:45:39.341Z,3.90
2023-03-12T06:48:41.651Z,3.65
2023-03-12T06:51:43.966Z,4.47
2023-03-12T06:54:45.734Z,4.28
2023-03-12T06:57:47.543Z,4.22
2023-03-12T07:00:49.660Z,4.50
2023-03-12T07:03:51.610Z,4.22
2023-03-12T07:06:53.743Z,4.35
2023-03-12T07:09:55.479Z,3.97
2023-03-12T07:12:57.889Z,4.70
2023-03-12T07:16:00.136Z,4.85
2023-03-12T07:19:01.964Z,4.78
2023-03-12T07:22:04.322Z,4.75
2023-03-12T07:25:06.334Z,4.60
2023-03-12T07:28:09.328Z,5.53
2023-03-12T07:31:11.123Z,5.05
2023-03-12T07:34:13.702Z,5.20
2023-03-12T07:37:15.719Z,4.60
2023-03-12T07:40:17.791Z,5.05
2023-03-12T07:43:21.631Z,5.43
2023-03-12T07:46:23.937Z,5.30
2023-03-12T07:49:27.568Z,5.28
2023-03-12T07:52:29.722Z,5.32
2023-03-12T07:55:32.919Z,5.50
2023-03-12T07:58:36.474Z,6.25
2023-03-12T08:01:38.539Z,5.93
2023-03-12T08:04:40.972Z,5.00
2023-03-12T08:07:43.135Z,6.03
2023-03-12T08:10:45.429Z,6.07
2023-03-12T08:13:47.608Z,6.25
2023-03-12T08:16:51.280Z,5.45
2023-03-12T08:19:53.185Z,5.25
2023-03-12T08:22:55.371Z,5.95
2023-03-12T08:25:59.347Z,6.20
2023-03-12T08:29:01.214Z,5.95
2023-03-12T08:32:05.270Z,6.45
2023-03-12T08:35:07.980Z,5.35
2023-03-12T08:38:09.790Z,5.88
2023-03-12T08:41:12.347Z,6.13
2023-03-12T08:44:14.348Z,6.57
2023-03-12T08:47:16.200Z,5.68
2023-03-12T08:50:18.224Z,6.00
2023-03-12T08:53:20.074Z,6.53
2023-03-12T08:56:25.025Z,6.82
2023-03-12T08:59:27.102Z,7.35
2023-03-12T09:02:28.942Z,7.18
2023-03-12T09:05:30.747Z,6.97
2023-03-12T09:08:34.063Z,6.47
2023-03-12T09:11:39.680Z,7.13
2023-03-12T09:15:02.377Z,7.47
2023-03-12T09:18:04.493Z,7.78
2023-03-12T09:21:06.981Z,7.78
2023-03-12T09:24:09.819Z,8.13
2023-03-12T09:27:11.594Z,8.45
2023-03-12T09:30:20.188Z,9.18
2023-03-12T09:33:22.128Z,10.07
2023-03-12T09:36:24.202Z,12.30
2023-03-12T09:39:26.058Z,11.30
2023-03-12T09:42:35.278Z,10.38
2023-03-12T09:45:42.755Z,10.38
2023-03-12T09:48:47.608Z,11.68
2023-03-12T09:51:55.062Z,11.25
2023-03-12T09:55:17.808Z,11.82
2023-03-12T09:58:31.928Z,12.25
2023-03-12T10:01:51.624Z,12.18
2023-03-12T10:05:09.144Z,11.90
2023-03-12T10:08:26.385Z,11.20
2023-03-12T10:12:05.173Z,10.77
2023-03-12T10:15:22.530Z,12.50
2023-03-12T10:18:55.534Z,10.30
2023-03-12T10:22:35.143Z,11.87
2023-03-12T10:25:48.831Z,11.65
2023-03-12T10:28:53.953Z,10.65
2023-03-12T10:32:02.152Z,10.10
2023-03-12T10:35:16.585Z,10.32
2023-03-12T10:38:25.192Z,8.80
2023-03-12T10:41:34.620Z,9.50
2023-03-12T10:44:36.713Z,9.00
2023-03-12T10:47:41.204Z,8.85
2023-03-12T10:50:43.123Z,7.55
2023-03-12T10:53:48.489Z,7.78
2023-03-12T10:56:51.328Z,6.07
2023-03-12T11:00:08.130Z,8.32
2023-03-12T11:03:22.081Z,6.55
2023-03-12T11:06:29.961Z,6.35
2023-03-12T11:09:32.019Z,7.88
2023-03-12T11:12:52.660Z,6.15
2023-03-12T11:15:56.094Z,6.63
2023-03-12T11:18:59.993Z,6.35
2023-03-12T11:22:08.122Z,6.55
2023-03-12T11:25:25.033Z,6.88
2023-03-12T11:28:51.901Z,7.53
2023-03-12T11:31:56.680Z,6.40
2023-03-12T11:34:58.934Z,7.60
2023-03-12T11:38:09.126Z,7.30
2023-03-12T11:41:18.399Z,6.55
2023-03-12T11:44:26.578Z,6.40
2023-03-12T11:47:48.925Z,6.38
2023-03-12T11:51:08.657Z,5.57
2023-03-12T11:54:36.356Z,5.40
2023-03-12T11:57:47.830Z,5.45
2023-03-12T12:01:26.675Z,6.03
2023-03-12T12:05:00.813Z,5.78
2023-03-12T12:11:12.947Z,5.18
2023-03-12T12:14:42.659Z,5.60
2023-03-12T12:17:59.203Z,5.28
2023-03-12T12:21:33.020Z,5.43
2023-03-12T12:25:12.434Z,5.88
2023-03-12T12:28:35.493Z,6.18
2023-03-12T12:31:49.250Z,5.13
2023-03-12T12:35:33.651Z,5.53
2023-03-12T12:38:38.183Z,5.95
2023-03-12T12:41:45.685Z,5.22
2023-03-12T12:44:51.030Z,6.22
2023-03-12T12:48:02.828Z,6.80
2023-03-12T12:51:08.956Z,6.05
2023-03-12T12:54:18.812Z,5.25
2023-03-12T12:57:50.046Z,6.88
2023-03-12T13:00:56.060Z,5.78
2023-03-12T13:04:06.953Z,6.63
2023-03-12T13:07:20.553Z,5.60
2023-03-12T13:13:36.411Z,7.82
2023-03-12T13:16:46.277Z,5.32
2023-03-12T13:20:01.230Z,7.20
2023-03-12T13:23:32.770Z,4.78
2023-03-12T13:26:50.067Z,5.15
2023-03-12T13:29:57.241Z,5.25
2023-03-12T13:32:59.592Z,6.32
2023-03-12T13:36:16.175Z,5.22
2023-03-12T13:39:28.705Z,4.90
2023-03-12T13:42:40.181Z,5.90
2023-03-12T13:45:48.353Z,5.47
2023-03-12T13:48:50.660Z,6.72
2023-03-12T13:52:14.420Z,5.32
2023-03-12T13:58:27.886Z,4.75
2023-03-12T14:01:49.002Z,5.25
2023-03-12T14:04:52.251Z,5.10
2023-03-12T14:08:20.178Z,5.97
2023-03-12T14:11:59.541Z,6.28
2023-03-12T14:15:05.636Z,5.78
2023-03-12T14:18:24.753Z,5.47
2023-03-12T14:21:34.315Z,4.63
2023-03-12T14:24:47.843Z,5.22
2023-03-12T14:27:50.210Z,4.68
2023-03-12T14:31:00.029Z,4.90
2023-03-12T14:34:05.194Z,5.28
2023-03-12T14:37:28.480Z,4.70
2023-03-12T14:40:44.319Z,5.38
2023-03-12T14:43:46.485Z,4.88
2023-03-12T14:46:57.460Z,4.38
2023-03-12T14:49:59.329Z,5.35
2023-03-12T14:53:14.318Z,4.90
2023-03-12T14:56:29.237Z,4.65
2023-03-12T14:59:39.175Z,4.85
2023-03-12T15:02:43.247Z,4.70
2023-03-12T15:05:47.555Z,3.95
2023-03-12T15:08:49.664Z,5.07
2023-03-12T15:12:02.236Z,4.75
2023-03-12T15:15:27.544Z,5.10
2023-03-12T15:18:31.508Z,4.10
2023-03-12T15:21:35.709Z,4.60
2023-03-12T15:24:39.629Z,4.95
2023-03-12T15:27:41.602Z,4.43
2023-03-12T15:30:44.573Z,5.55
2023-03-12T15:34:01.094Z,4.35
2023-03-12T15:37:22.868Z,4.18
2023-03-12T15:40:27.830Z,4.57
2023-03-12T15:43:31.093Z,4.20
2023-03-12T15:46:33.215Z,4.45
2023-03-12T15:49:37.712Z,4.40
2023-03-12T15:52:39.671Z,4.45
2023-03-12T15:55:41.942Z,4.40
2023-03-12T15:58:43.723Z,4.43
2023-03-12T16:01:47.669Z,4.93
2023-03-12T16:04:49.497Z,5.05
2023-03-12T16:07:51.554Z,3.85
2023-03-12T16:10:53.951Z,4.95
2023-03-12T16:14:04.233Z,4.85
2023-03-12T16:17:14.454Z,4.63
2023-03-12T16:20:17.826Z,3.40
2023-03-12T16:26:22.524Z,4.18
2023-03-12T16:29:32.930Z,6.15
2023-03-12T16:32:34.871Z,4.40
2023-03-12T16:35:36.811Z,3.97
2023-03-12T16:38:38.632Z,4.18
2023-03-12T16:41:40.667Z,4.13
2023-03-12T16:44:46.267Z,4.70
2023-03-12T16:47:54.655Z,4.05
2023-03-12T16:50:58.883Z,5.10
2023-03-12T16:54:09.526Z,4.80
2023-03-12T16:57:31.780Z,4.05
2023-03-12T17:00:34.453Z,4.88
2023-03-12T17:03:43.339Z,4.43
2023-03-12T17:06:45.208Z,5.43
2023-03-12T17:09:47.328Z,4.88
2023-03-12T17:12:50.214Z,4.38
2023-03-12T17:15:53.296Z,5.22
2023-03-12T17:18:55.773Z,4.78
2023-03-12T17:21:58.336Z,4.05
2023-03-12T17:25:00.146Z,5.10
2023-03-12T17:28:02.254Z,4.63
2023-03-12T17:31:04.641Z,4.28
2023-03-12T17:34:06.690Z,5.23
2023-03-12T17:37:08.588Z,4.90
2023-03-12T17:40:11.229Z,5.10
2023-03-12T17:43:13.009Z,4.25
2023-03-12T17:46:14.900Z,5.25
2023-03-12T17:49:16.833Z,4.95
2023-03-12T17:52:18.680Z,4.57
2023-03-12T17:55:20.732Z,5.35
2023-03-12T17:58:22.800Z,5.35
2023-03-12T18:01:24.763Z,5.68
2023-03-12T18:04:26.595Z,5.68
2023-03-12T18:07:28.362Z,5.20
2023-03-12T18:10:30.297Z,5.00
2023-03-12T18:13:33.344Z,5.40
2023-03-12T18:16:35.304Z,5.10
2023-03-12T18:19:37.292Z,5.20
2023-03-12T18:25:54.418Z,5.72
2023-03-12T18:28:56.312Z,4.30
2023-03-12T18:31:58.225Z,4.70
2023-03-12T18:35:01.105Z,5.43
2023-03-12T18:38:03.058Z,6.00
2023-03-12T18:41:06.650Z,6.38
2023-03-12T18:44:08.739Z,5.55
2023-03-12T18:47:10.544Z,5.35
2023-03-12T18:50:13.025Z,5.65
2023-03-12T18:53:14.973Z,5.40
2023-03-12T18:56:16.962Z,5.20
2023-03-12T18:59:19.161Z,5.93
2023-03-12T19:02:20.981Z,4.80
2023-03-12T19:05:23.055Z,5.22
2023-03-12T19:08:24.911Z,6.10
2023-03-12T19:11:27.743Z,6.22
2023-03-12T19:14:30.370Z,4.75
2023-03-12T19:17:32.220Z,6.40
2023-03-12T19:20:34.026Z,6.40
2023-03-12T19:23:36.582Z,6.45
2023-03-12T19:26:38.591Z,5.57
2023-03-12T19:29:40.396Z,7.32
2023-03-12T19:32:44.169Z,6.07
2023-03-12T19:35:46.627Z,5.72
2023-03-12T19:38:48.501Z,5.63
2023-03-12T19:41:50.826Z,5.80
2023-03-12T19:44:52.949Z,6.57
2023-03-12T19:47:54.949Z,6.80
2023-03-12T19:50:56.753Z,6.20
2023-03-12T19:53:58.560Z,6.03
2023-03-12T19:57:00.572Z,5.88
2023-03-12T20:00:02.874Z,5.90
2023-03-12T20:03:05.183Z,6.40
2023-03-12T20:06:09.616Z,6.97
2023-03-12T20:09:11.496Z,6.35
2023-03-12T20:12:13.622Z,7.82
2023-03-12T20:15:16.216Z,6.30
2023-03-12T20:18:18.386Z,5.33
2023-03-12T20:21:20.196Z,6.07
2023-03-12T20:24:22.442Z,6.05
2023-03-12T20:27:24.189Z,6.10
2023-03-12T20:30:26.094Z,5.32
2023-03-12T20:33:27.842Z,6.82
2023-03-12T20:36:30.080Z,6.97
2023-03-12T20:39:31.932Z,6.22
2023-03-12T20:42:33.722Z,6.22
2023-03-12T20:45:35.586Z,7.05
2023-03-12T20:48:37.705Z,7.22
2023-03-12T20:51:40.657Z,5.88
2023-03-12T20:54:42.589Z,5.97
2023-03-12T20:57:44.470Z,5.80
2023-03-12T21:00:46.522Z,6.05
2023-03-12T21:03:48.459Z,5.40
2023-03-12T21:06:51.771Z,4.60
2023-03-12T21:12:56.682Z,5.03
2023-03-12T21:15:59.498Z,6.03
2023-03-12T21:19:02.026Z,5.45
2023-03-12T21:22:03.795Z,5.00
2023-03-12T21:25:07.207Z,6.15
2023-03-12T21:31:14.594Z,5.15
2023-03-12T21:34:16.686Z,4.95
2023-03-12T21:37:18.883Z,5.15
2023-03-12T21:40:20.806Z,5.00
2023-03-12T21:43:22.567Z,5.60
2023-03-12T21:46:24.932Z,4.20
2023-03-12T21:49:26.926Z,4.43
2023-03-12T21:52:29.063Z,3.97
2023-03-12T21:55:30.923Z,4.55
2023-03-12T21:58:33.444Z,4.40
2023-03-12T22:01:35.430Z,4.00
2023-03-12T22:04:37.594Z,3.75
2023-03-12T22:07:39.579Z,4.30
2023-03-12T22:10:42.601Z,3.40
2023-03-12T22:13:46.230Z,3.50
2023-03-12T22:16:48.054Z,3.78
2023-03-12T22:19:49.967Z,3.55
2023-03-12T22:22:51.967Z,4.00
2023-03-12T22:25:54.269Z,3.78
2023-03-12T22:28:58.127Z,4.50
2023-03-12T22:32:00.198Z,3.78
2023-03-12T22:35:02.076Z,4.63
2023-03-12T22:38:04.026Z,4.32
2023-03-12T22:41:25.182Z,4.80
2023-03-12T22:44:26.983Z,3.75
2023-03-12T22:47:28.826Z,5.60
2023-03-12T22:50:31.665Z,4.03
2023-03-12T22:53:33.910Z,3.83
2023-03-12T22:56:35.926Z,3.95
2023-03-12T22:59:38.340Z,3.88
2023-03-12T23:02:40.356Z,4.53
2023-03-12T23:05:42.098Z,4.20
2023-03-12T23:08:46.272Z,3.85
2023-03-12T23:11:49.514Z,4.32
2023-03-12T23:14:51.536Z,4.47
2023-03-12T23:17:53.321Z,4.18
2023-03-12T23:21:00.117Z,4.68
2023-03-12T23:24:02.175Z,4.68
2023-03-12T23:27:04.557Z,4.97
2023-03-12T23:30:07.190Z,4.32
2023-03-12T23:33:09.047Z,4.78
2023-03-12T23:36:13.874Z,4.32
2023-03-12T23:39:16.046Z,4.60
2023-03-12T23:42:17.814Z,5.07
2023-03-12T23:45:19.677Z,4.97
2023-03-12T23:48:21.574Z,5.22
2023-03-12T23:51:31.890Z,4.28
2023-03-12T23:54:33.680Z,4.50
2023-03-12T23:57:35.480Z,4.20
